Darco, Texas
Current Conditions -  °F | °C
As of 1:55 PM on Sunday 21 Dec 2014 (Local Time) from KASL Reporting Station
Overcast Overcast  
Wind Chill: 55°   Ceiling: 2500
Heat Index: 55°   Visibility: 10mi
Dew Point: 47°   Wind: 6mph
Humidity: 76%   Direction: 190°S
Pressure: 30.02"   Gusts: NA
Location:  32.4675°N, 94.3321°W
Report Text: KASL 211955Z AUTO 19005KT 10SM SCT018 OVC025 13/09 A3002 RMK AO1 T01260085
Loading
Personal Weather Stations






























Interactive Weather Map New forecast layout! Learn more

10-Day Weather Forecast

Advertisements
Track Severe Weather on mobile